Time;durP1;ratioP1;P1;durP2;ratioP2;P2;SDS_P1;SDS_P2;PMS_P1;PMS_P2;Temp;Humidity;BMP_temperature;BMP_pressure;BME280_temperature;BME280_humidity;BME280_pressure;Samples;Min_cycle;Max_cycle;Signal;HPM_P1;HPM_P2
2022/04/07 00:02:15;;;;;;;1.98;1.63;;;9.90;99.90;;;;;;5031735;28;20029;-88
2022/04/07 00:04:41;;;;;;;6.68;2.03;;;9.90;99.90;;;;;;5051313;28;20032;-88
2022/04/07 00:07:06;;;;;;;2.40;2.05;;;9.90;99.90;;;;;;5049689;28;20041;-88
2022/04/07 00:09:32;;;;;;;4.13;1.95;;;9.90;99.90;;;;;;5051530;28;20017;-86
2022/04/07 00:11:57;;;;;;;4.22;2.20;;;9.90;99.90;;;;;;5052884;28;20073;-89
2022/04/07 00:14:23;;;;;;;5.03;2.08;;;9.90;99.90;;;;;;5034605;28;20033;-88
2022/04/07 00:16:48;;;;;;;4.22;2.30;;;9.80;99.90;;;;;;5035938;28;20037;-90
2022/04/07 00:19:15;;;;;;;2.72;2.38;;;9.80;99.90;;;;;;5038731;28;20130;-89
2022/04/07 00:21:47;;;;;;;3.80;1.98;;;9.70;99.90;;;;;;5051234;28;20029;-89
2022/04/07 00:24:13;;;;;;;2.72;2.30;;;9.70;99.90;;;;;;5051007;28;20033;-88
2022/04/07 00:26:38;;;;;;;3.53;2.28;;;9.70;99.90;;;;;;5053261;28;20036;-88
2022/04/07 00:29:04;;;;;;;4.03;2.65;;;9.60;99.90;;;;;;5049657;28;20033;-87
2022/04/07 00:31:38;;;;;;;4.63;2.20;;;9.60;99.90;;;;;;5049325;28;20059;-86
2022/04/07 00:34:07;;;;;;;4.32;2.67;;;9.60;99.90;;;;;;5042117;28;20017;-88
2022/04/07 00:36:33;;;;;;;5.05;2.67;;;9.60;99.90;;;;;;5051714;28;20112;-87
2022/04/07 00:38:59;;;;;;;5.28;2.58;;;9.50;99.90;;;;;;5030902;28;20116;-86
2022/04/07 00:41:24;;;;;;;5.97;3.45;;;9.50;99.90;;;;;;5034234;28;20032;-87
2022/04/07 00:43:51;;;;;;;5.90;3.35;;;9.40;99.90;;;;;;5051528;28;20021;-87
2022/04/07 00:46:17;;;;;;;2.95;2.47;;;9.40;99.90;;;;;;5032824;28;20056;-87
2022/04/07 00:48:43;;;;;;;2.97;2.50;;;9.30;99.90;;;;;;5033444;28;20074;-87
2022/04/07 00:51:08;;;;;;;2.80;2.30;;;9.30;99.90;;;;;;5040504;28;20028;-88
2022/04/07 00:53:34;;;;;;;4.30;2.20;;;9.30;99.90;;;;;;5050391;28;20055;-89
2022/04/07 00:56:01;;;;;;;3.15;2.28;;;9.30;99.90;;;;;;5034564;28;20932;-86
2022/04/07 00:58:32;;;;;;;2.63;1.70;;;9.30;99.90;;;;;;5049129;28;20029;-86
2022/04/07 01:00:58;;;;;;;5.47;2.20;;;9.30;99.90;;;;;;5044855;28;20035;-85
2022/04/07 01:03:24;;;;;;;3.70;2.10;;;9.30;99.90;;;;;;5032815;28;20099;-85
2022/04/07 01:05:50;;;;;;;3.38;2.20;;;9.30;99.90;;;;;;5032638;28;20128;-85
2022/04/07 01:08:16;;;;;;;2.75;1.70;;;9.30;99.90;;;;;;5031443;28;20025;-84
2022/04/07 01:10:43;;;;;;;3.30;1.95;;;9.30;99.90;;;;;;5032300;28;20025;-83
2022/04/07 01:13:11;;;;;;;3.92;2.00;;;9.30;99.90;;;;;;5052948;28;20387;-84
2022/04/07 01:15:37;;;;;;;3.85;2.13;;;9.30;99.90;;;;;;5051370;28;20108;-85
2022/04/07 01:18:03;;;;;;;2.20;1.45;;;9.30;99.90;;;;;;5049180;28;20133;-87
2022/04/07 01:20:29;;;;;;;3.85;1.77;;;9.30;99.90;;;;;;5031059;28;20041;-88
2022/04/07 01:22:56;;;;;;;3.15;1.63;;;9.30;99.90;;;;;;5050597;28;20033;-87
2022/04/07 01:25:23;;;;;;;2.53;1.77;;;9.30;99.90;;;;;;5032250;28;20135;-88
2022/04/07 01:27:49;;;;;;;3.63;1.52;;;9.40;99.90;;;;;;5051892;28;20025;-88
2022/04/07 01:30:16;;;;;;;1.75;1.35;;;9.40;99.90;;;;;;5053234;28;20108;-88
2022/04/07 01:32:53;;;;;;;2.10;1.67;;;9.30;99.90;;;;;;5035405;28;20044;-88
2022/04/07 01:35:22;;;;;;;2.08;1.30;;;9.30;99.90;;;;;;5051803;28;20025;-86
2022/04/07 01:37:48;;;;;;;1.55;1.40;;;9.30;99.90;;;;;;5040949;28;20074;-86
2022/04/07 01:40:16;;;;;;;5.15;1.63;;;9.40;99.90;;;;;;5035847;28;20017;-85
2022/04/07 01:42:45;;;;;;;1.52;1.42;;;9.40;99.90;;;;;;5036911;28;20035;-87
2022/04/07 01:45:12;;;;;;;2.47;1.63;;;9.40;99.90;;;;;;5036792;28;20526;-86
2022/04/07 01:47:40;;;;;;;2.58;1.67;;;9.40;99.90;;;;;;5053627;28;20040;-86
2022/04/07 01:50:08;;;;;;;1.77;1.60;;;9.40;99.90;;;;;;5036261;28;20481;-88
2022/04/07 01:52:35;;;;;;;2.55;1.90;;;9.40;99.90;;;;;;5034390;28;20747;-88
2022/04/07 01:55:02;;;;;;;2.08;1.75;;;9.30;99.90;;;;;;5054550;28;20044;-88
2022/04/07 01:57:28;;;;;;;1.92;1.73;;;9.40;99.90;;;;;;5036222;28;20112;-86
2022/04/07 01:59:54;;;;;;;2.05;1.88;;;9.30;99.90;;;;;;5035903;28;20067;-87
2022/04/07 02:02:24;;;;;;;2.85;2.17;;;9.30;99.90;;;;;;5055063;28;20029;-88
2022/04/07 02:04:56;;;;;;;2.88;2.00;;;9.30;99.90;;;;;;5053528;28;20029;-87
2022/04/07 02:07:27;;;;;;;3.80;2.10;;;9.30;99.90;;;;;;5036177;28;20059;-85
2022/04/07 02:09:53;;;;;;;4.10;1.92;;;9.40;99.90;;;;;;5035389;28;20040;-88
2022/04/07 02:12:20;;;;;;;2.42;1.70;;;9.40;99.90;;;;;;5054721;28;20021;-88
2022/04/07 02:14:50;;;;;;;2.10;1.70;;;9.40;99.90;;;;;;5052550;28;20529;-87
2022/04/07 02:17:20;;;;;;;2.63;2.42;;;9.40;99.90;;;;;;5052986;28;20029;-87
2022/04/07 02:19:50;;;;;;;2.13;1.92;;;9.40;99.90;;;;;;5053164;28;20026;-87
2022/04/07 02:22:17;;;;;;;2.28;2.00;;;9.40;99.90;;;;;;5052914;28;20025;-89
2022/04/07 02:24:42;;;;;;;1.98;1.77;;;9.40;99.90;;;;;;5044611;28;20071;-86
2022/04/07 02:27:08;;;;;;;2.97;1.88;;;9.40;99.90;;;;;;5023090;28;20449;-88
2022/04/07 02:29:34;;;;;;;2.70;1.42;;;9.40;99.90;;;;;;5029839;28;20491;-88
2022/04/07 02:32:00;;;;;;;2.05;1.77;;;9.40;99.90;;;;;;5034447;28;20086;-87
2022/04/07 02:34:26;;;;;;;3.67;2.33;;;9.40;99.90;;;;;;5054022;28;20037;-88
2022/04/07 02:36:52;;;;;;;2.22;1.70;;;9.40;99.90;;;;;;5051641;28;20526;-87
2022/04/07 02:39:17;;;;;;;1.98;1.55;;;9.40;99.90;;;;;;5036233;28;20021;-88
2022/04/07 02:41:43;;;;;;;3.13;2.42;;;9.50;99.90;;;;;;5034741;28;20033;-87
2022/04/07 02:44:08;;;;;;;2.25;1.77;;;9.50;99.90;;;;;;5034280;28;20408;-87
2022/04/07 02:46:34;;;;;;;2.08;1.60;;;9.50;99.90;;;;;;5035413;28;20503;-87
2022/04/07 02:48:59;;;;;;;1.50;1.40;;;9.50;99.90;;;;;;5050617;28;20021;-87
2022/04/07 02:51:26;;;;;;;2.60;1.80;;;9.40;99.90;;;;;;5054380;28;20009;-88
2022/04/07 02:53:57;;;;;;;1.50;1.30;;;9.40;99.90;;;;;;5048464;28;20035;-87
2022/04/07 02:56:27;;;;;;;1.83;1.73;;;9.30;99.90;;;;;;5049408;28;20116;-90
2022/04/07 02:58:53;;;;;;;1.50;1.40;;;9.20;99.90;;;;;;5035893;28;20029;-89
2022/04/07 03:01:19;;;;;;;1.40;1.30;;;9.10;99.90;;;;;;5035156;28;20515;-89
2022/04/07 03:03:44;;;;;;;1.50;1.40;;;9.10;99.90;;;;;;5055918;28;20100;-87
2022/04/07 03:06:10;;;;;;;1.63;1.52;;;9.10;99.90;;;;;;5033555;28;20025;-87
2022/04/07 03:08:36;;;;;;;1.80;1.60;;;9.10;99.90;;;;;;5034356;28;20037;-89
2022/04/07 03:11:02;;;;;;;2.28;1.60;;;9.00;99.90;;;;;;5034615;28;20365;-87
2022/04/07 03:13:28;;;;;;;2.00;1.80;;;9.00;99.90;;;;;;5026445;28;20084;-87
2022/04/07 03:15:54;;;;;;;1.63;1.52;;;9.00;99.90;;;;;;5047895;28;20396;-89
2022/04/07 03:18:20;;;;;;;1.85;1.48;;;9.00;99.90;;;;;;5053140;28;20641;-88
2022/04/07 03:20:46;;;;;;;2.42;1.63;;;9.00;99.90;;;;;;5034228;28;20029;-87
2022/04/07 03:23:12;;;;;;;1.58;1.48;;;9.00;99.90;;;;;;5036383;28;20117;-86
2022/04/07 03:25:40;;;;;;;2.00;1.75;;;9.10;99.90;;;;;;5035740;28;20416;-86
2022/04/07 03:28:06;;;;;;;1.60;1.40;;;9.10;99.90;;;;;;5049898;28;20067;-85
2022/04/07 03:30:32;;;;;;;1.55;1.33;;;9.10;99.90;;;;;;5035622;28;20086;-87
2022/04/07 03:32:58;;;;;;;1.90;1.73;;;9.20;99.90;;;;;;5034004;28;20040;-85
2022/04/07 03:35:25;;;;;;;2.35;1.77;;;9.20;99.90;;;;;;5034649;28;20622;-87
2022/04/07 03:37:51;;;;;;;5.20;2.15;;;9.20;99.90;;;;;;5034125;28;20033;-86
2022/04/07 03:40:17;;;;;;;1.75;1.65;;;9.30;99.90;;;;;;5052186;28;20501;-87
2022/04/07 03:42:44;;;;;;;2.75;1.83;;;9.30;99.90;;;;;;5052414;28;20461;-85
2022/04/07 03:45:09;;;;;;;1.85;1.67;;;9.30;99.90;;;;;;5054446;28;20029;-86
2022/04/07 03:47:35;;;;;;;3.30;2.22;;;9.30;99.90;;;;;;5052131;28;20507;-86
2022/04/07 03:50:00;;;;;;;1.98;1.88;;;9.30;99.90;;;;;;5051547;28;20029;-87
2022/04/07 03:52:26;;;;;;;2.38;2.17;;;9.30;99.90;;;;;;5041997;28;20021;-86
2022/04/07 03:54:52;;;;;;;3.22;2.28;;;9.30;99.90;;;;;;5034017;28;20029;-87
2022/04/07 03:57:18;;;;;;;2.55;2.35;;;9.20;99.90;;;;;;5052438;28;20049;-85
2022/04/07 03:59:44;;;;;;;2.40;2.05;;;9.20;99.90;;;;;;5031618;28;20056;-86
2022/04/07 04:02:10;;;;;;;2.40;2.10;;;9.20;99.90;;;;;;5034396;28;20463;-86
2022/04/07 04:04:39;;;;;;;2.47;2.28;;;9.20;99.90;;;;;;5052355;28;20029;-87
2022/04/07 04:07:05;;;;;;;2.20;2.00;;;9.10;99.90;;;;;;5033440;28;20036;-86
2022/04/07 04:09:32;;;;;;;2.67;2.00;;;9.10;99.90;;;;;;5033437;28;20056;-87
2022/04/07 04:11:58;;;;;;;1.95;1.75;;;9.10;99.90;;;;;;5033986;28;20075;-86
2022/04/07 04:14:23;;;;;;;2.20;1.92;;;9.10;99.90;;;;;;5034126;28;20034;-86
2022/04/07 04:16:49;;;;;;;3.58;2.10;;;9.10;99.90;;;;;;5052227;28;20025;-87
2022/04/07 04:19:15;;;;;;;3.42;1.92;;;9.20;99.90;;;;;;5032661;28;20508;-85
2022/04/07 04:21:41;;;;;;;1.77;1.65;;;9.20;99.90;;;;;;5040169;28;20098;-85
2022/04/07 04:24:07;;;;;;;2.35;1.90;;;9.20;99.90;;;;;;5054129;28;20053;-87
2022/04/07 04:26:32;;;;;;;2.55;1.80;;;9.30;99.90;;;;;;5034673;28;20116;-87
2022/04/07 04:28:58;;;;;;;3.58;2.10;;;9.30;99.90;;;;;;5034045;28;20121;-87
2022/04/07 04:31:24;;;;;;;1.92;1.83;;;9.30;99.90;;;;;;5056805;28;20124;-86
2022/04/07 04:33:55;;;;;;;2.03;1.80;;;9.30;99.90;;;;;;5032128;28;20477;-83
2022/04/07 04:36:21;;;;;;;1.70;1.60;;;9.40;99.90;;;;;;5051934;28;20078;-89
2022/04/07 04:38:48;;;;;;;11.40;3.83;;;9.40;99.90;;;;;;5052138;28;20024;-87
2022/04/07 04:41:14;;;;;;;2.22;1.80;;;9.40;99.90;;;;;;5034399;28;20458;-87
2022/04/07 04:43:39;;;;;;;2.13;1.70;;;9.40;99.90;;;;;;5033591;28;20052;-87
2022/04/07 04:46:07;;;;;;;1.98;1.80;;;9.40;99.90;;;;;;5053916;28;20496;-89
2022/04/07 04:48:35;;;;;;;2.58;1.50;;;9.40;99.90;;;;;;5053000;28;20029;-88
2022/04/07 04:51:02;;;;;;;1.75;1.63;;;9.40;99.90;;;;;;5059436;28;20075;-89
2022/04/07 04:53:29;;;;;;;1.92;1.60;;;9.40;99.90;;;;;;5042661;28;20033;-87
2022/04/07 04:55:54;;;;;;;2.03;1.60;;;9.40;99.90;;;;;;5061207;28;20092;-90
2022/04/07 04:58:20;;;;;;;2.67;2.20;;;9.40;99.90;;;;;;5042120;28;20489;-89
2022/04/07 05:00:46;;;;;;;1.58;1.30;;;9.40;99.90;;;;;;5062925;28;20033;-84
2022/04/07 05:03:11;;;;;;;1.83;1.42;;;9.40;99.90;;;;;;5045724;28;20036;-84
2022/04/07 05:05:37;;;;;;;2.08;1.25;;;9.40;99.90;;;;;;5044552;28;20052;-85
2022/04/07 05:08:03;;;;;;;1.40;1.30;;;9.40;99.90;;;;;;5033006;28;20049;-86
2022/04/07 05:10:28;;;;;;;1.65;1.30;;;9.40;99.90;;;;;;5048607;28;20021;-85
2022/04/07 05:12:54;;;;;;;1.33;1.23;;;9.40;99.90;;;;;;5033919;28;20028;-89
2022/04/07 05:15:20;;;;;;;1.70;1.27;;;9.40;99.90;;;;;;5051291;28;20586;-88
2022/04/07 05:17:50;;;;;;;2.17;1.20;;;9.40;99.90;;;;;;5032657;28;20049;-87
2022/04/07 05:20:16;;;;;;;2.80;1.40;;;9.40;99.90;;;;;;5048678;28;20037;-86
2022/04/07 05:22:42;;;;;;;1.52;1.02;;;9.50;99.90;;;;;;5050443;28;20029;-86
2022/04/07 05:25:08;;;;;;;1.60;1.15;;;9.50;99.90;;;;;;5049480;28;20537;-86
2022/04/07 05:27:36;;;;;;;1.17;1.08;;;9.50;99.90;;;;;;5037818;28;20080;-88
2022/04/07 05:30:06;;;;;;;1.52;1.42;;;9.50;99.90;;;;;;5049222;28;20376;-89
2022/04/07 05:32:32;;;;;;;1.95;1.00;;;9.50;99.90;;;;;;5047819;28;20090;-87
2022/04/07 05:34:58;;;;;;;2.60;1.10;;;9.50;99.90;;;;;;5042027;28;20492;-88
2022/04/07 05:37:24;;;;;;;1.20;0.90;;;9.50;99.90;;;;;;5032551;28;20025;-89
2022/04/07 05:39:51;;;;;;;1.48;0.90;;;9.50;99.90;;;;;;5052809;28;20029;-87
2022/04/07 05:42:17;;;;;;;1.58;1.10;;;9.50;99.90;;;;;;5049468;28;20408;-88
2022/04/07 05:44:43;;;;;;;1.50;0.80;;;9.50;99.90;;;;;;5050293;28;20036;-87
2022/04/07 05:47:09;;;;;;;1.00;0.90;;;9.60;99.90;;;;;;5023262;28;20491;-88
2022/04/07 05:49:36;;;;;;;1.30;0.73;;;9.50;99.90;;;;;;5051717;28;20104;-89
2022/04/07 05:52:04;;;;;;;1.50;1.00;;;9.60;99.90;;;;;;5052103;28;20029;-87
2022/04/07 05:54:30;;;;;;;1.65;0.80;;;9.50;99.90;;;;;;5045019;28;20033;-87
2022/04/07 05:56:56;;;;;;;1.00;0.80;;;9.50;99.90;;;;;;5032606;28;20029;-86
2022/04/07 05:59:22;;;;;;;0.73;0.73;;;9.50;99.90;;;;;;5047807;28;20035;-86
2022/04/07 06:01:47;;;;;;;0.80;0.80;;;9.50;99.90;;;;;;5049143;28;20507;-88
2022/04/07 06:04:13;;;;;;;1.00;0.90;;;9.40;99.90;;;;;;5032655;28;20049;-86
2022/04/07 06:06:39;;;;;;;0.63;0.63;;;9.40;99.90;;;;;;5047972;28;20082;-87
2022/04/07 06:09:05;;;;;;;0.85;0.80;;;9.40;99.90;;;;;;5032412;28;20453;-86
2022/04/07 06:11:30;;;;;;;0.88;0.80;;;9.40;99.90;;;;;;5029218;28;20109;-87
2022/04/07 06:13:56;;;;;;;0.80;0.70;;;9.40;99.90;;;;;;5030803;28;20124;-86
2022/04/07 06:16:22;;;;;;;1.70;0.68;;;9.40;99.90;;;;;;5054122;28;20120;-87
2022/04/07 06:18:47;;;;;;;1.30;0.73;;;9.40;99.90;;;;;;5054956;28;20072;-87
2022/04/07 06:21:13;;;;;;;1.08;0.60;;;9.40;99.90;;;;;;5034813;28;20040;-86
2022/04/07 06:23:39;;;;;;;2.72;0.73;;;9.50;99.90;;;;;;5036586;28;20029;-90
2022/04/07 06:26:06;;;;;;;0.90;0.70;;;9.60;99.90;;;;;;5053197;28;20041;-86
2022/04/07 06:28:32;;;;;;;2.85;0.65;;;9.70;99.90;;;;;;5036078;28;20029;-87
2022/04/07 06:30:57;;;;;;;0.70;0.68;;;9.80;99.90;;;;;;5036653;28;20036;-87
2022/04/07 06:33:23;;;;;;;0.73;0.68;;;9.90;99.90;;;;;;5049165;28;20100;-86
2022/04/07 06:35:50;;;;;;;1.40;0.60;;;9.90;99.90;;;;;;5039522;28;20033;-87
2022/04/07 06:38:16;;;;;;;0.70;0.60;;;9.90;99.90;;;;;;5034618;28;20029;-86
2022/04/07 06:40:41;;;;;;;0.85;0.60;;;10.00;99.90;;;;;;5033502;28;20041;-88
2022/04/07 06:43:07;;;;;;;1.13;0.60;;;10.10;99.90;;;;;;5026928;28;20037;-88
2022/04/07 06:45:33;;;;;;;1.23;0.70;;;10.20;99.90;;;;;;5051102;28;20025;-87
2022/04/07 06:47:58;;;;;;;1.05;0.60;;;10.10;99.90;;;;;;5034000;28;20040;-86
2022/04/07 06:50:25;;;;;;;0.60;0.60;;;10.10;99.90;;;;;;5036493;28;20047;-86
2022/04/07 06:52:52;;;;;;;1.58;0.60;;;10.10;99.90;;;;;;5053193;28;20063;-87
2022/04/07 06:55:18;;;;;;;0.63;0.63;;;10.10;99.90;;;;;;5034778;28;20025;-86
2022/04/07 06:57:47;;;;;;;1.20;1.10;;;10.20;99.90;;;;;;5034540;28;20013;-87
2022/04/07 07:00:14;;;;;;;0.75;0.60;;;10.20;99.90;;;;;;5031942;28;20052;-88
2022/04/07 07:02:40;;;;;;;0.60;0.60;;;10.30;99.90;;;;;;5052663;28;20029;-86
2022/04/07 07:05:06;;;;;;;1.02;0.60;;;10.30;99.90;;;;;;5034153;28;20028;-88
2022/04/07 07:07:32;;;;;;;2.50;0.68;;;10.40;99.90;;;;;;5052216;28;20025;-85
2022/04/07 07:09:57;;;;;;;1.40;0.60;;;10.60;99.90;;;;;;5034685;28;20032;-85
2022/04/07 07:12:23;;;;;;;0.63;0.63;;;10.60;99.90;;;;;;5052365;28;20017;-88
2022/04/07 07:14:48;;;;;;;0.80;0.50;;;10.60;99.90;;;;;;5042753;28;20066;-88
2022/04/07 07:17:14;;;;;;;0.63;0.50;;;10.60;99.90;;;;;;5035358;28;20037;-88
2022/04/07 07:19:39;;;;;;;1.20;0.50;;;10.70;99.90;;;;;;5031570;28;20560;-88
2022/04/07 07:22:05;;;;;;;1.27;0.60;;;10.70;99.90;;;;;;5042643;28;20036;-86
2022/04/07 07:24:31;;;;;;;1.88;1.48;;;10.70;99.90;;;;;;5053083;28;20555;-88
2022/04/07 07:26:56;;;;;;;0.68;0.57;;;10.70;99.90;;;;;;5047170;28;20025;-86
2022/04/07 07:29:22;;;;;;;0.60;0.60;;;10.80;99.90;;;;;;5025561;28;20710;-85
2022/04/07 07:31:47;;;;;;;0.50;0.50;;;10.80;99.90;;;;;;5052403;28;20033;-86
2022/04/07 07:34:13;;;;;;;0.50;0.50;;;10.80;99.90;;;;;;5052140;28;20041;-87
2022/04/07 07:36:39;;;;;;;0.88;0.50;;;10.80;99.90;;;;;;5052835;28;20029;-86
2022/04/07 07:39:04;;;;;;;1.65;0.80;;;10.80;99.90;;;;;;5034788;28;20033;-87
2022/04/07 07:41:30;;;;;;;0.50;0.50;;;10.80;99.90;;;;;;5052800;28;20124;-85
2022/04/07 07:43:55;;;;;;;0.98;0.52;;;10.80;99.90;;;;;;5052295;28;20082;-88
2022/04/07 07:46:21;;;;;;;0.85;0.40;;;10.90;99.90;;;;;;5050866;28;20033;-84
2022/04/07 07:48:47;;;;;;;1.00;0.60;;;11.10;99.90;;;;;;5053066;28;20032;-83
2022/04/07 07:51:12;;;;;;;0.63;0.60;;;11.30;99.90;;;;;;5052788;28;20396;-86
2022/04/07 07:53:38;;;;;;;0.55;0.50;;;11.40;99.90;;;;;;5019655;28;20034;-85
2022/04/07 07:56:04;;;;;;;0.50;0.50;;;11.60;99.90;;;;;;5038263;28;20562;-87
2022/04/07 07:58:30;;;;;;;1.27;0.50;;;11.60;99.90;;;;;;5037569;28;20045;-88
2022/04/07 08:00:56;;;;;;;0.60;0.60;;;11.60;99.90;;;;;;5052451;28;20109;-86
2022/04/07 08:03:22;;;;;;;0.65;0.50;;;11.70;99.90;;;;;;5039057;28;20029;-89
2022/04/07 08:05:48;;;;;;;0.70;0.60;;;11.70;99.90;;;;;;5051482;28;20119;-88
2022/04/07 08:08:14;;;;;;;0.88;0.47;;;11.70;99.90;;;;;;5032606;28;20036;-88
2022/04/07 08:10:40;;;;;;;0.88;0.60;;;11.70;99.90;;;;;;5038426;28;20376;-87
2022/04/07 08:13:06;;;;;;;0.57;0.43;;;11.80;99.90;;;;;;5051419;28;20021;-85
2022/04/07 08:15:33;;;;;;;0.50;0.50;;;11.90;99.90;;;;;;5051505;28;20031;-84
2022/04/07 08:17:58;;;;;;;0.50;0.50;;;12.00;99.90;;;;;;5030153;28;20033;-84
2022/04/07 08:20:24;;;;;;;0.95;0.60;;;12.20;99.90;;;;;;5049225;28;20557;-87
2022/04/07 08:22:50;;;;;;;0.50;0.50;;;12.30;99.90;;;;;;5032238;28;20049;-89
2022/04/07 08:25:15;;;;;;;0.85;0.50;;;12.40;99.90;;;;;;5033758;28;20037;-90
2022/04/07 08:27:41;;;;;;;0.28;0.28;;;12.50;99.90;;;;;;5029525;28;20025;-86
2022/04/07 08:30:07;;;;;;;0.60;0.50;;;12.70;99.90;;;;;;5051194;28;20029;-87
2022/04/07 08:32:33;;;;;;;0.50;0.50;;;12.70;99.90;;;;;;5051166;28;20088;-87
2022/04/07 08:34:59;;;;;;;0.82;0.60;;;12.60;99.90;;;;;;5033340;28;20448;-87
2022/04/07 08:37:25;;;;;;;0.80;0.80;;;12.60;98.50;;;;;;5053289;28;21167;-88
2022/04/07 08:39:51;;;;;;;1.20;0.50;;;12.60;99.90;;;;;;5051029;28;20021;-87
2022/04/07 08:42:23;;;;;;;1.08;0.65;;;12.80;99.90;;;;;;5023354;28;20465;-90
2022/04/07 08:44:51;;;;;;;0.40;0.40;;;13.00;99.90;;;;;;5045963;28;20038;-88
2022/04/07 08:47:20;;;;;;;1.27;0.50;;;13.70;99.90;;;;;;5050546;28;20789;-88
2022/04/07 08:49:48;;;;;;;0.90;0.65;;;14.30;95.10;;;;;;5029738;28;20045;-88
2022/04/07 08:52:14;;;;;;;0.50;0.50;;;14.70;93.10;;;;;;5044369;28;20032;-86
2022/04/07 08:54:40;;;;;;;0.57;0.57;;;14.90;92.90;;;;;;5048152;28;20583;-89
2022/04/07 08:57:06;;;;;;;0.47;0.47;;;14.90;93.90;;;;;;5032535;28;20078;-87
2022/04/07 08:59:32;;;;;;;0.50;0.50;;;14.70;94.10;;;;;;5048220;28;20390;-88
2022/04/07 09:02:05;;;;;;;2.38;0.45;;;14.60;95.00;;;;;;5014566;28;20063;-88
2022/04/07 09:04:36;;;;;;;4.03;0.40;;;14.40;95.80;;;;;;5024499;28;20033;-88
2022/04/07 09:07:02;;;;;;;0.40;0.40;;;13.90;96.90;;;;;;5025616;28;20025;-88
2022/04/07 09:09:31;;;;;;;1.10;0.45;;;13.50;98.60;;;;;;5059283;28;20100;-88
2022/04/07 09:11:58;;;;;;;0.55;0.40;;;13.10;99.90;;;;;;5046645;28;20108;-89
2022/04/07 09:14:24;;;;;;;0.98;0.40;;;12.70;99.90;;;;;;5051261;28;20029;-90
2022/04/07 09:16:54;;;;;;;0.50;0.45;;;12.50;99.90;;;;;;5030956;28;20557;-89
2022/04/07 09:19:24;;;;;;;0.45;0.45;;;12.80;99.90;;;;;;5050859;28;20108;-90
2022/04/07 09:22:12;;;;;;;0.80;0.40;;;13.50;99.90;;;;;;5050981;28;20021;-89
2022/04/07 09:24:40;;;;;;;0.30;0.30;;;14.50;99.90;;;;;;5033356;28;20033;-89
2022/04/07 09:27:08;;;;;;;0.50;0.30;;;15.60;99.90;;;;;;5044721;28;20115;-88
2022/04/07 09:29:55;;;;;;;0.40;0.40;;;16.40;94.40;;;;;;5048616;28;20971;-88
2022/04/07 09:32:20;;;;;;;0.40;0.40;;;16.70;91.30;;;;;;5045616;28;20041;-88
2022/04/07 09:34:57;;;;;;;0.50;0.40;;;16.80;90.80;;;;;;5032806;28;20523;-87
2022/04/07 09:37:26;;;;;;;0.50;0.50;;;17.10;85.30;;;;;;5050066;28;20041;-86
2022/04/07 09:40:09;;;;;;;0.40;0.40;;;17.10;85.40;;;;;;5044263;28;20091;-88
2022/04/07 09:42:35;;;;;;;0.82;0.40;;;16.60;87.00;;;;;;5050764;28;20025;-86
2022/04/07 09:45:02;;;;;;;1.27;0.40;;;16.60;86.10;;;;;;5031237;28;20052;-87
2022/04/07 09:47:49;;;;;;;0.60;0.40;;;16.10;84.10;;;;;;5043242;28;20029;-88
2022/04/07 09:50:24;;;;;;;0.43;0.40;;;15.80;89.00;;;;;;5042020;28;20045;-89
2022/04/07 09:53:04;;;;;;;2.30;0.47;;;15.90;86.20;;;;;;5023234;28;20036;-88
2022/04/07 09:55:41;;;;;;;0.63;0.40;;;15.90;87.40;;;;;;5032278;28;20117;-87
2022/04/07 09:58:08;;;;;;;0.50;0.40;;;15.60;85.30;;;;;;5050680;28;20393;-89
2022/04/07 10:00:35;;;;;;;2.22;0.43;;;15.00;87.00;;;;;;5034500;28;20027;-87
2022/04/07 10:03:02;;;;;;;1.58;0.30;;;14.50;89.30;;;;;;5054753;28;20031;-87
2022/04/07 10:05:29;;;;;;;0.45;0.30;;;14.10;90.60;;;;;;5053891;28;20365;-89
2022/04/07 10:07:57;;;;;;;0.40;0.40;;;13.90;92.80;;;;;;5036672;28;20052;-88
2022/04/07 10:10:23;;;;;;;0.65;0.40;;;13.70;94.40;;;;;;5035985;28;20024;-88
2022/04/07 10:12:49;;;;;;;0.57;0.40;;;13.50;96.30;;;;;;5036476;28;20029;-88
2022/04/07 10:15:17;;;;;;;1.42;0.50;;;13.40;97.30;;;;;;5054710;28;20051;-88
2022/04/07 10:17:43;;;;;;;0.55;0.40;;;13.20;99.00;;;;;;5053111;28;20439;-87
2022/04/07 10:20:11;;;;;;;0.50;0.40;;;13.00;99.90;;;;;;5053627;28;20078;-88
2022/04/07 10:22:59;;;;;;;0.88;0.40;;;12.80;99.90;;;;;;5053820;28;20561;-87
2022/04/07 10:25:26;;;;;;;0.50;0.47;;;12.60;99.90;;;;;;5028989;28;20045;-87
2022/04/07 10:27:54;;;;;;;0.47;0.40;;;12.50;99.90;;;;;;5033489;28;20112;-88
2022/04/07 10:30:21;;;;;;;0.93;0.40;;;12.30;99.90;;;;;;5054122;28;20021;-88
2022/04/07 10:32:54;;;;;;;0.40;0.40;;;12.30;99.90;;;;;;5053952;28;20060;-86
2022/04/07 10:35:29;;;;;;;1.00;0.45;;;12.20;99.90;;;;;;5051433;28;20055;-87
2022/04/07 10:37:56;;;;;;;0.82;0.40;;;12.30;99.90;;;;;;5053149;28;20575;-86
2022/04/07 10:40:50;;;;;;;0.73;0.57;;;12.20;99.90;;;;;;5035526;28;20107;-87
2022/04/07 10:43:25;;;;;;;0.90;0.50;;;12.20;99.90;;;;;;5041236;28;20026;-87
2022/04/07 10:46:05;;;;;;;0.65;0.45;;;12.10;99.90;;;;;;5032337;28;20095;-86
2022/04/07 10:48:34;;;;;;;0.67;0.50;;;12.10;99.90;;;;;;5048638;28;20043;-87
2022/04/07 10:51:01;;;;;;;0.40;0.40;;;12.00;99.90;;;;;;5034361;28;20044;-87
2022/04/07 10:53:36;;;;;;;0.65;0.50;;;11.90;99.90;;;;;;5049992;28;20036;-86
2022/04/07 10:56:06;;;;;;;0.82;0.82;;;11.90;99.90;;;;;;5043727;28;20025;-88
2022/04/07 10:58:51;;;;;;;1.57;1.13;;;11.80;99.90;;;;;;5053786;28;20040;-86
2022/04/07 11:01:30;;;;;;;1.50;0.55;;;11.90;99.90;;;;;;5040408;28;20103;-88
2022/04/07 11:04:20;;;;;;;1.20;0.50;;;11.80;99.90;;;;;;5034401;28;20033;-88
2022/04/07 11:07:18;;;;;;;0.95;0.60;;;11.70;99.90;;;;;;5032769;28;20060;-84
2022/04/07 11:09:57;;;;;;;1.08;0.50;;;11.70;99.90;;;;;;5021752;28;20025;-87
2022/04/07 11:12:23;;;;;;;1.10;0.50;;;11.60;99.90;;;;;;5026031;28;20501;-86
2022/04/07 11:14:51;;;;;;;2.28;0.50;;;11.50;99.90;;;;;;5053077;28;20083;-85
2022/04/07 11:17:31;;;;;;;0.65;0.55;;;11.40;99.90;;;;;;5051412;28;20037;-85
2022/04/07 11:20:05;;;;;;;0.70;0.50;;;11.50;99.90;;;;;;5032859;28;20411;-85
2022/04/07 11:23:04;;;;;;;0.77;0.43;;;11.60;99.90;;;;;;5050545;28;20501;-87
2022/04/07 11:25:43;;;;;;;3.05;0.50;;;11.60;99.90;;;;;;5023915;28;20563;-86
2022/04/07 11:28:14;;;;;;;1.30;0.40;;;11.70;99.90;;;;;;5050250;28;20574;-88
2022/04/07 11:30:47;;;;;;;0.50;0.40;;;11.80;99.90;;;;;;5048411;28;20115;-86
2022/04/07 11:33:27;;;;;;;0.40;0.38;;;11.90;99.90;;;;;;5051515;28;20033;-89
2022/04/07 11:35:59;;;;;;;0.40;0.40;;;12.00;99.90;;;;;;5028208;28;20033;-86
2022/04/07 11:38:29;;;;;;;2.38;0.45;;;12.00;99.90;;;;;;5047300;28;20120;-87
2022/04/07 11:41:02;;;;;;;0.40;0.30;;;12.00;99.90;;;;;;5033790;28;20108;-86
2022/04/07 11:43:28;;;;;;;0.40;0.40;;;11.90;99.90;;;;;;5035870;28;20029;-86
2022/04/07 11:45:55;;;;;;;1.38;0.40;;;11.90;99.90;;;;;;5047816;28;20075;-87
2022/04/07 11:48:21;;;;;;;0.40;0.40;;;12.00;99.90;;;;;;5053092;28;20048;-89
2022/04/07 11:50:46;;;;;;;0.40;0.40;;;12.00;99.90;;;;;;5032251;28;20445;-88
2022/04/07 11:53:12;;;;;;;0.30;0.30;;;12.00;99.90;;;;;;5027856;28;20063;-88
2022/04/07 11:55:38;;;;;;;1.00;0.40;;;12.10;99.90;;;;;;5034568;28;20512;-87
2022/04/07 11:58:03;;;;;;;0.70;0.43;;;12.00;99.90;;;;;;5034515;28;20427;-89
2022/04/07 12:00:32;;;;;;;0.85;0.40;;;12.00;99.90;;;;;;5030482;28;20123;-88
2022/04/07 12:03:05;;;;;;;2.95;0.40;;;12.00;99.90;;;;;;5052388;28;20238;-89
2022/04/07 12:05:39;;;;;;;0.75;0.50;;;12.00;99.90;;;;;;5052068;28;20030;-84
2022/04/07 12:08:15;;;;;;;0.70;0.65;;;12.00;99.90;;;;;;5038646;28;20412;-87
2022/04/07 12:10:46;;;;;;;0.50;0.43;;;12.00;99.90;;;;;;5028307;28;20045;-88
2022/04/07 12:13:12;;;;;;;0.55;0.32;;;12.10;99.90;;;;;;5033518;28;20024;-88
2022/04/07 12:15:38;;;;;;;0.30;0.30;;;12.10;99.90;;;;;;5034666;28;20083;-89
2022/04/07 12:18:08;;;;;;;0.70;0.38;;;12.00;99.90;;;;;;5051873;28;20056;-89
2022/04/07 12:20:35;;;;;;;1.05;0.40;;;12.00;99.90;;;;;;5023425;28;20029;-88
2022/04/07 12:23:04;;;;;;;0.75;0.40;;;12.00;99.90;;;;;;5051425;28;20094;-88
2022/04/07 12:25:29;;;;;;;0.63;0.50;;;12.00;99.90;;;;;;5033815;28;20061;-88
2022/04/07 12:28:06;;;;;;;0.52;0.30;;;12.10;99.90;;;;;;5033649;28;20064;-87
2022/04/07 12:30:52;;;;;;;0.40;0.40;;;12.00;99.90;;;;;;5051777;28;20025;-89
2022/04/07 12:33:42;;;;;;;0.30;0.30;;;12.10;99.90;;;;;;5029388;28;20041;-88
2022/04/07 12:36:26;;;;;;;1.95;0.32;;;12.20;99.90;;;;;;5017478;28;20496;-89
2022/04/07 12:39:00;;;;;;;0.20;0.20;;;12.30;99.90;;;;;;5041599;28;20397;-87
2022/04/07 12:41:38;;;;;;;0.35;0.35;;;12.50;99.90;;;;;;5025869;28;20026;-87
2022/04/07 12:44:05;;;;;;;0.30;0.30;;;12.60;99.90;;;;;;5043902;28;20032;-86
2022/04/07 12:46:43;;;;;;;0.35;0.35;;;12.70;99.90;;;;;;5050978;28;20032;-88
2022/04/07 12:49:09;;;;;;;3.00;0.68;;;12.70;99.90;;;;;;5044513;28;20120;-89
2022/04/07 12:51:36;;;;;;;0.85;0.47;;;12.70;99.90;;;;;;5051561;28;20135;-88
2022/04/07 12:54:09;;;;;;;0.88;0.40;;;12.70;99.90;;;;;;5032471;28;20025;-89
2022/04/07 12:56:35;;;;;;;0.85;0.40;;;12.70;99.90;;;;;;5050066;28;20029;-88
2022/04/07 12:59:03;;;;;;;0.50;0.40;;;12.60;99.90;;;;;;5029106;28;20405;-89